createdAt,value
2017-12-05T00:00:13.390Z,91.01
2017-12-05T00:01:16.611Z,91.22
2017-12-05T00:02:19.547Z,90.89
2017-12-05T00:03:22.754Z,91.15
2017-12-05T00:04:25.717Z,91.23
2017-12-05T00:05:28.685Z,91.01
2017-12-05T00:06:31.639Z,90.59
2017-12-05T00:07:34.599Z,90.64
2017-12-05T00:08:37.514Z,90.80
2017-12-05T00:09:40.758Z,91.06
2017-12-05T00:10:44.201Z,91.08
2017-12-05T00:11:47.309Z,90.41
2017-12-05T00:12:50.296Z,90.99
2017-12-05T00:13:53.306Z,91.34
2017-12-05T00:14:56.387Z,91.10
2017-12-05T00:15:59.603Z,91.27
2017-12-05T00:17:03.068Z,91.23
2017-12-05T00:18:06.484Z,91.45
2017-12-05T00:19:11.041Z,91.45
2017-12-05T00:20:14.845Z,91.43
2017-12-05T00:21:18.162Z,91.59
2017-12-05T00:22:22.428Z,91.47
2017-12-05T00:23:25.775Z,91.39
2017-12-05T00:24:28.984Z,91.12
2017-12-05T00:25:31.963Z,91.06
2017-12-05T00:26:35.242Z,90.49
2017-12-05T00:27:39.100Z,91.08
2017-12-05T00:28:43.742Z,91.11
2017-12-05T00:29:47.076Z,91.51
2017-12-05T00:30:50.064Z,91.36
2017-12-05T00:31:52.962Z,90.98
2017-12-05T00:32:55.949Z,90.97
2017-12-05T00:33:58.971Z,91.10
2017-12-05T00:35:02.239Z,90.56
2017-12-05T00:36:05.283Z,91.19
2017-12-05T00:37:08.335Z,91.20
2017-12-05T00:38:11.361Z,90.99
2017-12-05T00:39:14.713Z,90.78
2017-12-05T00:42:46.441Z,90.29
2017-12-05T00:43:49.810Z,90.89
2017-12-05T00:44:52.843Z,90.64
2017-12-05T00:45:56.819Z,90.29
2017-12-05T00:47:00.201Z,89.66
2017-12-05T00:48:03.909Z,89.50
2017-12-05T00:49:07.915Z,90.25
2017-12-05T00:50:11.377Z,89.91
2017-12-05T00:51:14.942Z,90.03
2017-12-05T00:52:17.939Z,89.27
2017-12-05T00:53:20.925Z,89.52
2017-12-05T00:54:23.891Z,89.94
2017-12-05T00:55:27.173Z,89.62
2017-12-05T00:56:30.139Z,89.55
2017-12-05T00:57:33.139Z,89.60
2017-12-05T00:58:36.144Z,90.01
2017-12-05T00:59:39.132Z,90.31
2017-12-05T01:00:42.501Z,90.68
2017-12-05T01:01:46.099Z,90.43
2017-12-05T01:02:49.108Z,90.50
2017-12-05T01:03:52.127Z,91.22
2017-12-05T01:04:55.105Z,90.72
2017-12-05T01:05:58.119Z,90.55
2017-12-05T01:07:01.090Z,90.51
2017-12-05T01:08:04.412Z,90.77
2017-12-05T01:09:07.449Z,91.21
2017-12-05T01:10:10.457Z,91.38
2017-12-05T01:11:13.421Z,90.76
2017-12-05T01:12:16.489Z,91.69
2017-12-05T01:13:19.513Z,91.73
2017-12-05T01:14:22.915Z,91.37
2017-12-05T01:15:25.975Z,91.56
2017-12-05T01:16:29.076Z,91.78
2017-12-05T01:17:33.006Z,91.50
2017-12-05T01:18:36.064Z,90.52
2017-12-05T01:19:39.056Z,90.71
2017-12-05T01:20:42.340Z,90.67
2017-12-05T01:21:45.287Z,90.23
2017-12-05T01:22:48.272Z,90.41
2017-12-05T01:23:51.243Z,90.36
2017-12-05T01:24:54.203Z,89.97
2017-12-05T01:25:57.164Z,89.71
2017-12-05T01:27:00.715Z,89.67
2017-12-05T01:28:03.749Z,88.98
2017-12-05T01:29:06.767Z,89.92
2017-12-05T01:30:09.824Z,90.60
2017-12-05T01:31:12.736Z,90.73
2017-12-05T01:32:15.680Z,90.20
2017-12-05T01:33:18.989Z,89.80
2017-12-05T01:34:21.859Z,89.81
2017-12-05T01:35:24.781Z,90.33
2017-12-05T01:36:27.693Z,90.51
2017-12-05T01:37:30.667Z,90.02
2017-12-05T01:38:34.541Z,90.17
2017-12-05T01:39:37.422Z,90.44
2017-12-05T01:40:40.336Z,89.93
2017-12-05T01:41:43.293Z,89.98
2017-12-05T01:42:46.288Z,90.42
2017-12-05T01:43:49.295Z,90.59
2017-12-05T01:44:52.312Z,90.13
2017-12-05T01:45:55.552Z,89.90
2017-12-05T01:46:58.667Z,90.10
2017-12-05T01:48:01.558Z,89.99
2017-12-05T01:49:04.443Z,89.81
2017-12-05T01:50:07.352Z,90.08
2017-12-05T01:51:10.261Z,89.86
2017-12-05T01:52:13.541Z,89.71
2017-12-05T01:53:16.667Z,90.38
2017-12-05T01:59:19.237Z,89.69
2017-12-05T02:00:22.094Z,89.46
2017-12-05T02:01:25.042Z,89.99
2017-12-05T02:02:27.961Z,90.20
2017-12-05T02:03:30.939Z,89.85
2017-12-05T02:04:34.064Z,88.89
2017-12-05T02:05:37.493Z,89.04
2017-12-05T02:06:40.455Z,89.55
2017-12-05T02:07:43.439Z,89.59
2017-12-05T02:08:46.421Z,89.63
2017-12-05T02:09:49.373Z,89.24
2017-12-05T02:10:52.433Z,88.77
2017-12-05T02:11:55.715Z,88.95
2017-12-05T02:12:58.639Z,88.69
2017-12-05T02:14:01.675Z,89.30
2017-12-05T02:15:04.650Z,89.17
2017-12-05T02:16:07.654Z,88.79
2017-12-05T02:17:10.546Z,89.40
2017-12-05T02:18:13.998Z,89.39
2017-12-05T02:19:17.045Z,89.43
2017-12-05T02:20:20.034Z,88.93
2017-12-05T02:21:23.190Z,89.25
2017-12-05T02:22:26.162Z,88.93
2017-12-05T02:23:29.144Z,89.06
2017-12-05T02:24:32.570Z,88.91
2017-12-05T02:25:35.483Z,89.37
2017-12-05T02:26:38.467Z,88.72
2017-12-05T02:27:41.427Z,88.48
2017-12-05T02:28:44.378Z,88.54
2017-12-05T02:29:47.346Z,88.48
2017-12-05T02:30:50.607Z,88.48
2017-12-05T02:31:53.526Z,88.97
2017-12-05T02:32:56.484Z,88.09
2017-12-05T02:33:59.467Z,88.03
2017-12-05T02:35:02.403Z,88.57
2017-12-05T02:36:05.397Z,87.66
2017-12-05T02:37:08.594Z,88.34
2017-12-05T02:38:11.520Z,88.16
2017-12-05T02:39:14.546Z,87.38
2017-12-05T02:40:17.516Z,88.09
2017-12-05T02:41:20.563Z,87.88
2017-12-05T02:42:23.524Z,87.77
2017-12-05T02:43:26.948Z,87.58
2017-12-05T02:44:29.927Z,87.73
2017-12-05T02:45:32.873Z,88.26
2017-12-05T02:46:35.843Z,88.38
2017-12-05T02:47:38.783Z,87.30
2017-12-05T02:48:41.806Z,86.72
2017-12-05T02:49:45.028Z,87.39
2017-12-05T02:50:48.053Z,88.20
2017-12-05T02:51:51.013Z,88.26
2017-12-05T02:52:53.996Z,87.98
2017-12-05T02:53:56.919Z,87.11
2017-12-05T02:54:59.946Z,87.53
2017-12-05T02:56:03.248Z,87.96
2017-12-05T02:57:06.193Z,86.29
2017-12-05T02:58:09.203Z,87.39
2017-12-05T02:59:12.199Z,87.65
2017-12-05T03:00:15.168Z,86.96
2017-12-05T03:01:18.099Z,86.63
2017-12-05T03:02:21.464Z,86.65
2017-12-05T03:03:24.465Z,86.96
2017-12-05T03:04:27.507Z,87.06
2017-12-05T03:05:30.524Z,87.32
2017-12-05T03:06:33.539Z,87.08
2017-12-05T03:07:36.756Z,87.10
2017-12-05T03:08:40.048Z,87.06
2017-12-05T03:09:43.001Z,87.33
2017-12-05T03:10:45.981Z,86.90
2017-12-05T03:11:48.828Z,86.90
2017-12-05T03:12:52.650Z,87.03
2017-12-05T03:13:55.615Z,87.28
2017-12-05T03:14:58.947Z,87.56
2017-12-05T03:16:01.867Z,87.19
2017-12-05T03:17:04.756Z,86.95
2017-12-05T03:18:07.588Z,87.37
2017-12-05T03:19:10.464Z,86.93
2017-12-05T03:20:13.549Z,87.32
2017-12-05T03:21:16.720Z,87.72
2017-12-05T03:22:19.577Z,87.62
2017-12-05T03:23:22.435Z,87.64
2017-12-05T03:24:25.355Z,87.43
2017-12-05T03:25:28.271Z,87.71
2017-12-05T03:26:31.250Z,87.35
2017-12-05T03:27:34.586Z,87.47
2017-12-05T03:28:37.478Z,88.22
2017-12-05T03:29:40.358Z,87.43
2017-12-05T03:30:43.237Z,88.15
2017-12-05T03:31:46.153Z,88.29
2017-12-05T03:32:49.121Z,87.83
2017-12-05T03:33:52.411Z,88.05
2017-12-05T03:34:55.378Z,88.27
2017-12-05T03:35:58.320Z,88.14
2017-12-05T03:37:01.238Z,87.53
2017-12-05T03:38:04.163Z,87.79
2017-12-05T03:39:07.134Z,88.17
2017-12-05T03:40:10.383Z,88.23
2017-12-05T03:41:13.376Z,88.39
2017-12-05T03:42:16.416Z,88.01
2017-12-05T03:43:19.416Z,88.04
2017-12-05T03:44:22.384Z,88.15
2017-12-05T03:45:25.330Z,88.45
2017-12-05T03:46:28.795Z,88.45
2017-12-05T03:47:31.728Z,87.54
2017-12-05T03:48:34.756Z,88.18
2017-12-05T03:49:37.691Z,87.10
2017-12-05T03:50:40.696Z,87.91
2017-12-05T03:51:43.721Z,88.08
2017-12-05T03:52:47.015Z,87.04
2017-12-05T03:53:49.856Z,87.17
2017-12-05T03:54:52.713Z,87.60
2017-12-05T03:55:55.560Z,87.49
2017-12-05T03:56:58.501Z,87.37
2017-12-05T03:58:01.406Z,87.86
2017-12-05T03:59:04.755Z,87.19
2017-12-05T04:00:07.666Z,87.64
2017-12-05T04:01:10.627Z,87.43
2017-12-05T04:02:13.604Z,87.19
2017-12-05T04:04:33.402Z,87.94
2017-12-05T04:05:36.706Z,86.88
2017-12-05T04:06:39.670Z,87.06
2017-12-05T04:07:42.619Z,87.60
2017-12-05T04:08:45.624Z,87.50
2017-12-05T04:09:48.571Z,87.31
2017-12-05T04:10:51.856Z,87.52
2017-12-05T04:11:54.808Z,87.14
2017-12-05T04:12:57.774Z,87.53
2017-12-05T04:14:00.731Z,87.57
2017-12-05T04:15:03.683Z,87.17
2017-12-05T04:16:06.699Z,87.22
2017-12-05T04:17:09.954Z,86.41
2017-12-05T04:18:12.883Z,86.36
2017-12-05T04:19:15.820Z,86.75
2017-12-05T04:20:18.821Z,86.80
2017-12-05T04:21:21.775Z,87.22
2017-12-05T04:22:24.647Z,87.56
2017-12-05T04:23:27.834Z,87.47
2017-12-05T04:24:30.689Z,87.52
2017-12-05T04:25:33.582Z,87.48
2017-12-05T04:26:36.502Z,87.19
2017-12-05T04:27:39.387Z,87.68
2017-12-05T04:28:42.237Z,88.15
2017-12-05T04:29:45.403Z,88.23
2017-12-05T04:30:48.439Z,88.29
2017-12-05T04:31:51.539Z,88.57
2017-12-05T04:32:54.483Z,88.21
2017-12-05T04:33:57.564Z,87.67
2017-12-05T04:35:00.542Z,87.97
2017-12-05T04:36:03.876Z,87.94
2017-12-05T04:37:06.845Z,87.67
2017-12-05T04:38:09.805Z,87.73
2017-12-05T04:39:12.828Z,87.69
2017-12-05T04:40:21.661Z,88.01
2017-12-05T04:41:24.605Z,88.43
2017-12-05T04:42:27.740Z,88.34
2017-12-05T04:43:30.613Z,88.21
2017-12-05T04:44:33.390Z,88.43
2017-12-05T04:46:50.035Z,88.47
2017-12-05T04:47:52.869Z,88.35
2017-12-05T04:48:55.720Z,89.12
2017-12-05T04:49:58.572Z,89.12
2017-12-05T04:51:01.414Z,88.74
2017-12-05T04:52:04.238Z,88.28
2017-12-05T04:53:07.040Z,88.75
2017-12-05T04:54:09.951Z,88.84
2017-12-05T04:55:12.874Z,89.12
2017-12-05T04:56:15.760Z,89.06
2017-12-05T04:57:18.767Z,88.94
2017-12-05T04:58:21.667Z,89.05
2017-12-05T04:59:24.843Z,89.28
2017-12-05T05:00:27.707Z,89.07
2017-12-05T05:01:30.734Z,88.80
2017-12-05T05:02:33.646Z,88.99
2017-12-05T05:03:36.607Z,88.71
2017-12-05T05:04:39.656Z,88.87
2017-12-05T05:05:42.894Z,89.27
2017-12-05T05:06:45.981Z,89.05
2017-12-05T05:07:48.930Z,88.94
2017-12-05T05:08:51.981Z,88.95
2017-12-05T05:09:54.962Z,88.83
2017-12-05T05:10:57.931Z,89.07
2017-12-05T05:12:01.392Z,88.75
2017-12-05T05:13:04.340Z,88.77
2017-12-05T05:14:07.331Z,89.14
2017-12-05T05:15:10.259Z,89.54
2017-12-05T05:16:13.362Z,89.62
2017-12-05T05:17:16.513Z,88.97
2017-12-05T05:18:19.793Z,89.42
2017-12-05T05:19:22.940Z,89.50
2017-12-05T05:20:25.987Z,89.40
2017-12-05T05:21:29.156Z,88.98
2017-12-05T05:22:32.235Z,89.29
2017-12-05T05:23:35.368Z,89.42
2017-12-05T05:24:38.774Z,89.68
2017-12-05T05:25:41.810Z,89.36
2017-12-05T05:26:44.935Z,89.30
2017-12-05T05:27:47.971Z,88.84
2017-12-05T05:28:51.090Z,89.19
2017-12-05T05:29:54.242Z,89.55
2017-12-05T05:30:57.558Z,89.16
2017-12-05T05:32:00.534Z,89.44
2017-12-05T05:33:03.651Z,89.51
2017-12-05T05:34:06.598Z,89.78
2017-12-05T05:35:09.610Z,89.75
2017-12-05T05:36:12.558Z,89.66
2017-12-05T05:37:15.839Z,89.32
2017-12-05T05:38:18.811Z,89.23
2017-12-05T05:39:21.749Z,89.35
2017-12-05T05:40:24.726Z,88.71
2017-12-05T05:41:27.863Z,88.99
2017-12-05T05:42:30.865Z,89.27
2017-12-05T05:43:34.272Z,90.21
2017-12-05T05:44:37.345Z,89.29
2017-12-05T05:45:40.526Z,89.62
2017-12-05T05:46:43.564Z,89.25
2017-12-05T05:47:46.607Z,89.06
2017-12-05T05:48:49.714Z,88.51
2017-12-05T05:49:52.983Z,88.54
2017-12-05T05:50:55.983Z,88.75
2017-12-05T05:51:59.027Z,89.06
2017-12-05T05:53:02.058Z,89.21
2017-12-05T05:54:05.020Z,89.06
2017-12-05T05:55:08.067Z,89.14
2017-12-05T05:56:11.411Z,89.27
2017-12-05T05:57:14.290Z,88.73
2017-12-05T05:58:17.136Z,89.18
2017-12-05T05:59:20.133Z,88.97
2017-12-05T06:00:23.050Z,88.97
2017-12-05T06:01:25.960Z,88.78
2017-12-05T06:02:29.305Z,88.55
2017-12-05T06:03:32.404Z,88.75
2017-12-05T06:04:35.277Z,88.28
2017-12-05T06:05:38.216Z,88.51
2017-12-05T06:06:41.280Z,88.93
2017-12-05T06:07:44.250Z,88.73
2017-12-05T06:08:47.524Z,88.99
2017-12-05T06:09:50.518Z,88.98
2017-12-05T06:10:53.538Z,88.89
2017-12-05T06:11:56.666Z,88.85
2017-12-05T06:12:59.720Z,89.09
2017-12-05T06:14:02.735Z,88.97
2017-12-05T06:15:06.176Z,89.20
2017-12-05T06:16:09.186Z,89.08
2017-12-05T06:17:12.206Z,89.46
2017-12-05T06:18:15.182Z,89.26
2017-12-05T06:19:18.227Z,89.54
2017-12-05T06:20:21.190Z,89.54
2017-12-05T06:21:24.490Z,89.78
2017-12-05T06:22:27.522Z,89.83
2017-12-05T06:23:30.535Z,89.40
2017-12-05T06:24:33.568Z,90.10
2017-12-05T06:25:36.535Z,89.47
2017-12-05T06:26:39.544Z,89.50
2017-12-05T06:27:42.644Z,89.13
2017-12-05T06:28:45.675Z,89.36
2017-12-05T06:29:48.863Z,89.60
2017-12-05T06:30:52.403Z,89.60
2017-12-05T06:31:55.412Z,91.95
2017-12-05T06:32:59.491Z,91.03
2017-12-05T06:34:02.911Z,90.68
2017-12-05T06:35:08.063Z,90.66
2017-12-05T06:36:11.991Z,90.38
2017-12-05T06:37:15.000Z,90.74
2017-12-05T06:38:17.977Z,90.90
2017-12-05T06:39:21.087Z,92.75
2017-12-05T06:40:24.470Z,90.87
2017-12-05T06:41:27.405Z,91.73
2017-12-05T06:42:30.435Z,92.24
2017-12-05T06:43:33.397Z,92.37
2017-12-05T06:44:36.358Z,92.37
2017-12-05T06:45:40.301Z,91.67
2017-12-05T06:46:43.574Z,92.84
2017-12-05T06:47:46.722Z,92.32
2017-12-05T06:48:49.710Z,91.88
2017-12-05T06:49:52.740Z,90.98
2017-12-05T06:50:55.739Z,92.11
2017-12-05T06:51:58.755Z,92.41
2017-12-05T06:53:02.296Z,92.63
2017-12-05T06:54:05.273Z,92.21
2017-12-05T06:55:08.276Z,92.22
2017-12-05T06:56:11.271Z,93.85
2017-12-05T06:57:14.239Z,94.39
2017-12-05T06:58:17.295Z,93.60
2017-12-05T06:59:20.674Z,92.96
2017-12-05T07:00:23.650Z,93.82
2017-12-05T07:01:26.752Z,91.69
2017-12-05T07:02:29.800Z,91.90
2017-12-05T07:03:32.765Z,94.19
2017-12-05T07:04:35.717Z,93.67
2017-12-05T07:05:39.160Z,92.50
2017-12-05T07:06:42.215Z,92.60
2017-12-05T07:07:45.195Z,92.51
2017-12-05T07:08:48.220Z,91.87
2017-12-05T07:09:51.766Z,91.53
2017-12-05T07:10:54.771Z,91.96
2017-12-05T07:11:57.715Z,91.56
2017-12-05T07:13:00.785Z,91.76
2017-12-05T07:14:03.755Z,91.72
2017-12-05T07:15:06.825Z,91.42
2017-12-05T07:16:10.868Z,91.30
2017-12-05T07:17:15.460Z,90.80
2017-12-05T07:18:18.564Z,91.93
2017-12-05T07:19:21.504Z,91.26
2017-12-05T07:20:24.530Z,90.34
2017-12-05T07:21:27.564Z,92.14
2017-12-05T07:22:30.536Z,92.42
2017-12-05T07:23:33.969Z,91.83
2017-12-05T07:24:36.987Z,91.12
2017-12-05T07:25:40.008Z,91.57
2017-12-05T07:26:43.024Z,91.52
2017-12-05T07:27:46.851Z,93.04
2017-12-05T07:28:50.106Z,92.06
2017-12-05T07:29:53.106Z,91.54
2017-12-05T07:30:56.136Z,91.67
2017-12-05T07:31:59.611Z,90.79
2017-12-05T07:33:02.626Z,90.84
2017-12-05T07:34:05.609Z,91.93
2017-12-05T07:35:08.599Z,92.80
2017-12-05T07:36:11.588Z,91.50
2017-12-05T07:37:14.556Z,91.44
2017-12-05T07:38:17.559Z,91.61
2017-12-05T07:39:20.626Z,91.58
2017-12-05T07:40:23.869Z,92.29
2017-12-05T07:41:27.014Z,92.36
2017-12-05T07:42:30.545Z,93.72
2017-12-05T07:43:34.496Z,93.95
2017-12-05T07:44:37.556Z,91.80
2017-12-05T07:45:40.545Z,91.28
2017-12-05T07:46:43.539Z,91.17
2017-12-05T07:47:46.672Z,91.04
2017-12-05T07:48:49.659Z,91.71
2017-12-05T07:49:52.683Z,91.16
2017-12-05T07:50:55.638Z,93.67
2017-12-05T07:51:58.962Z,91.36
2017-12-05T07:53:02.028Z,90.99
2017-12-05T07:54:05.066Z,90.54
2017-12-05T07:55:08.061Z,91.23
2017-12-05T07:56:11.033Z,90.92
2017-12-05T07:57:14.116Z,91.19
2017-12-05T07:58:17.596Z,90.89
2017-12-05T07:59:20.631Z,90.58
2017-12-05T08:00:23.777Z,91.17
2017-12-05T08:01:26.775Z,90.93
2017-12-05T08:02:29.759Z,89.81
2017-12-05T08:03:32.857Z,90.20
2017-12-05T08:04:36.194Z,90.12
2017-12-05T08:05:39.226Z,89.47
2017-12-05T08:06:42.320Z,91.23
2017-12-05T08:07:45.422Z,90.50
2017-12-05T08:08:48.422Z,90.56
2017-12-05T08:09:51.427Z,90.53
2017-12-05T08:10:54.759Z,90.09
2017-12-05T08:11:57.815Z,94.57
2017-12-05T08:13:00.916Z,94.80
2017-12-05T08:14:03.910Z,91.11
2017-12-05T08:15:06.933Z,90.95
2017-12-05T08:16:09.972Z,90.80
2017-12-05T08:17:13.375Z,91.34
2017-12-05T08:18:16.288Z,90.65
2017-12-05T08:19:19.410Z,91.19
2017-12-05T08:20:22.399Z,91.54
2017-12-05T08:21:25.284Z,90.83
2017-12-05T08:22:28.305Z,92.18
2017-12-05T08:23:31.387Z,91.95
2017-12-05T08:24:34.221Z,92.03
2017-12-05T08:25:37.180Z,92.06
2017-12-05T08:26:40.098Z,91.75
2017-12-05T08:27:43.023Z,91.80
2017-12-05T08:28:46.096Z,92.06
2017-12-05T08:29:49.385Z,91.74
2017-12-05T08:30:52.423Z,93.27
2017-12-05T08:31:55.433Z,93.25
2017-12-05T08:32:58.468Z,93.08
2017-12-05T08:34:02.546Z,91.19
2017-12-05T08:35:05.542Z,92.47
2017-12-05T08:36:08.499Z,92.23
2017-12-05T08:37:11.594Z,92.11
2017-12-05T08:38:14.597Z,91.32
2017-12-05T08:39:17.803Z,89.27
2017-12-05T08:40:20.733Z,91.53
2017-12-05T08:41:23.978Z,92.72
2017-12-05T08:42:26.956Z,92.65
2017-12-05T08:43:29.975Z,92.67
2017-12-05T08:44:32.998Z,92.92
2017-12-05T08:45:36.109Z,92.85
2017-12-05T08:46:39.088Z,92.09
2017-12-05T08:47:42.532Z,91.80
2017-12-05T08:48:45.762Z,90.70
2017-12-05T08:49:48.766Z,90.54
2017-12-05T08:50:52.548Z,90.96
2017-12-05T08:51:55.626Z,90.02
2017-12-05T08:52:59.727Z,91.33
2017-12-05T08:54:03.165Z,90.88
2017-12-05T08:55:06.032Z,90.39
2017-12-05T08:56:08.947Z,91.67
2017-12-05T08:57:11.939Z,91.97
2017-12-05T08:58:14.931Z,91.85
2017-12-05T08:59:17.889Z,91.89
2017-12-05T09:00:21.310Z,91.82
2017-12-05T09:01:24.340Z,91.96
2017-12-05T09:02:27.335Z,91.91
2017-12-05T09:03:33.056Z,91.75
2017-12-05T09:04:36.105Z,91.71
2017-12-05T09:05:39.152Z,91.05
2017-12-05T09:06:42.135Z,90.75
2017-12-05T09:07:45.174Z,92.13
2017-12-05T09:08:48.098Z,89.03
2017-12-05T09:09:51.178Z,88.28
2017-12-05T09:10:54.195Z,88.89
2017-12-05T09:11:57.561Z,89.84
2017-12-05T09:13:00.634Z,95.62
2017-12-05T09:14:03.506Z,95.75
2017-12-05T09:15:06.502Z,95.67
2017-12-05T09:16:09.607Z,92.68
2017-12-05T09:17:12.607Z,90.73
2017-12-05T09:18:15.981Z,90.63
2017-12-05T09:19:19.026Z,88.41
2017-12-05T09:20:22.053Z,89.00
2017-12-05T09:21:25.094Z,89.41
2017-12-05T09:22:28.101Z,89.69
2017-12-05T09:24:33.196Z,89.02
2017-12-05T09:25:36.683Z,88.32
2017-12-05T09:26:39.752Z,89.25
2017-12-05T09:28:53.955Z,90.68
2017-12-05T09:29:57.228Z,87.68
2017-12-05T09:31:00.298Z,87.95
2017-12-05T09:32:03.254Z,89.29
2017-12-05T09:33:06.324Z,89.52
2017-12-05T09:34:09.371Z,88.42
2017-12-05T09:35:13.270Z,89.08
2017-12-05T09:36:16.259Z,89.34
2017-12-05T09:37:19.299Z,89.49
2017-12-05T09:38:22.371Z,89.33
2017-12-05T09:39:25.423Z,89.59
2017-12-05T09:40:28.419Z,89.46
2017-12-05T09:41:31.815Z,88.94
2017-12-05T09:42:34.755Z,90.24
2017-12-05T09:43:37.821Z,91.35
2017-12-05T09:44:40.896Z,90.97
2017-12-05T09:45:43.890Z,90.69
2017-12-05T09:46:46.913Z,90.98
2017-12-05T09:47:50.382Z,91.04
2017-12-05T09:48:53.361Z,92.58
2017-12-05T09:49:56.327Z,92.04
2017-12-05T09:50:59.295Z,91.87
2017-12-05T09:52:02.366Z,91.54
2017-12-05T09:53:05.343Z,88.33
2017-12-05T09:54:08.749Z,88.17
2017-12-05T09:55:11.806Z,88.00
2017-12-05T09:56:14.800Z,89.15
2017-12-05T09:57:17.838Z,88.99
2017-12-05T09:58:20.975Z,87.81
2017-12-05T09:59:24.057Z,89.01
2017-12-05T10:00:27.433Z,88.58
2017-12-05T10:01:30.423Z,89.75
2017-12-05T10:02:33.440Z,89.39
2017-12-05T10:03:36.494Z,89.57
2017-12-05T10:04:39.487Z,89.76
2017-12-05T10:05:42.427Z,89.83
2017-12-05T10:06:45.843Z,90.40
2017-12-05T10:07:48.925Z,89.70
2017-12-05T10:08:51.886Z,87.38
2017-12-05T10:09:54.865Z,87.25
2017-12-05T10:10:57.856Z,87.76
2017-12-05T10:12:00.877Z,88.47
2017-12-05T10:13:04.254Z,88.63
2017-12-05T10:14:07.214Z,88.94
2017-12-05T10:15:10.167Z,88.77
2017-12-05T10:16:13.267Z,88.96
2017-12-05T10:17:16.250Z,89.09
2017-12-05T10:18:19.308Z,89.32
2017-12-05T10:19:22.354Z,88.90
2017-12-05T10:20:25.351Z,89.07
2017-12-05T10:21:28.419Z,89.37
2017-12-05T10:22:31.466Z,89.83
2017-12-05T10:23:34.788Z,89.53
2017-12-05T10:24:38.272Z,89.35
2017-12-05T10:25:41.302Z,89.81
2017-12-05T10:26:44.678Z,90.07
2017-12-05T10:27:47.642Z,88.07
2017-12-05T10:28:50.576Z,88.21
2017-12-05T10:29:53.489Z,88.61
2017-12-05T10:30:56.809Z,88.97
2017-12-05T10:31:59.742Z,89.10
2017-12-05T10:33:02.723Z,90.53
2017-12-05T10:34:05.715Z,89.52
2017-12-05T10:35:08.838Z,90.04
2017-12-05T10:36:11.913Z,89.11
2017-12-05T10:37:15.699Z,86.92
2017-12-05T10:38:18.662Z,86.42
2017-12-05T10:39:21.640Z,88.62
2017-12-05T10:40:24.622Z,88.49
2017-12-05T10:41:27.691Z,87.04
2017-12-05T10:42:30.667Z,88.07
2017-12-05T10:43:34.023Z,88.60
2017-12-05T10:44:37.056Z,88.59
2017-12-05T10:45:40.166Z,88.60
2017-12-05T10:46:43.517Z,86.88
2017-12-05T10:47:46.579Z,87.69
2017-12-05T10:48:50.107Z,87.99
2017-12-05T10:49:53.388Z,87.67
2017-12-05T10:50:56.399Z,88.07
2017-12-05T10:52:00.335Z,88.00
2017-12-05T10:53:03.335Z,88.79
2017-12-05T10:54:06.358Z,88.67
2017-12-05T10:55:10.266Z,88.96
2017-12-05T10:56:13.827Z,88.89
2017-12-05T10:57:16.832Z,87.76
2017-12-05T10:58:19.978Z,85.63
2017-12-05T10:59:22.934Z,87.12
2017-12-05T11:00:25.998Z,87.09
2017-12-05T11:01:29.106Z,87.64
2017-12-05T11:02:32.380Z,92.43
2017-12-05T11:03:35.469Z,94.21
2017-12-05T11:04:38.519Z,94.31
2017-12-05T11:05:41.455Z,92.78
2017-12-05T11:06:44.431Z,89.07
2017-12-05T11:07:48.370Z,89.48
2017-12-05T11:08:51.745Z,90.23
2017-12-05T11:09:54.734Z,90.71
2017-12-05T11:10:57.871Z,89.54
2017-12-05T11:12:00.919Z,89.41
2017-12-05T11:13:03.920Z,88.37
2017-12-05T11:14:07.102Z,88.40
2017-12-05T11:15:10.578Z,88.25
2017-12-05T11:16:13.946Z,88.18
2017-12-05T11:17:17.039Z,88.54
2017-12-05T11:18:20.569Z,89.01
2017-12-05T11:19:23.678Z,89.32
2017-12-05T11:20:26.826Z,88.97
2017-12-05T11:21:30.381Z,88.99
2017-12-05T11:22:33.534Z,88.39
2017-12-05T11:23:36.476Z,88.63
2017-12-05T11:24:39.468Z,89.23
2017-12-05T11:25:42.667Z,89.51
2017-12-05T11:26:45.779Z,89.93
2017-12-05T11:27:49.194Z,91.21
2017-12-05T11:28:52.216Z,91.40
2017-12-05T11:29:55.150Z,89.68
2017-12-05T11:30:58.185Z,89.05
2017-12-05T11:32:01.664Z,89.50
2017-12-05T11:33:04.728Z,88.97
2017-12-05T11:34:08.951Z,88.32
2017-12-05T11:35:11.967Z,88.72
2017-12-05T11:36:15.041Z,88.56
2017-12-05T11:37:18.286Z,88.77
2017-12-05T11:38:21.401Z,88.77
2017-12-05T11:39:24.442Z,88.72
2017-12-05T11:40:28.013Z,89.03
2017-12-05T11:41:31.052Z,88.92
2017-12-05T11:42:34.341Z,88.72
2017-12-05T11:43:37.460Z,88.25
2017-12-05T11:44:41.259Z,88.88
2017-12-05T11:45:44.700Z,88.58
2017-12-05T11:46:47.648Z,88.37
2017-12-05T11:47:50.582Z,88.23
2017-12-05T11:48:54.410Z,88.72
2017-12-05T11:50:00.343Z,88.63
2017-12-05T11:51:04.019Z,88.72
2017-12-05T11:52:07.084Z,88.94
2017-12-05T11:53:10.796Z,87.84
2017-12-05T11:54:14.338Z,88.39
2017-12-05T11:55:18.433Z,88.71
2017-12-05T11:56:21.407Z,88.89
2017-12-05T11:57:24.460Z,88.80
2017-12-05T11:58:27.938Z,88.54
2017-12-05T11:59:31.592Z,88.89
2017-12-05T12:00:35.119Z,88.88
2017-12-05T12:01:38.138Z,88.59
2017-12-05T12:02:41.518Z,88.66
2017-12-05T12:03:44.559Z,88.42
2017-12-05T12:04:49.390Z,88.58
2017-12-05T12:05:53.200Z,88.54
2017-12-05T12:06:56.337Z,88.43
2017-12-05T12:07:59.627Z,88.82
2017-12-05T12:09:02.621Z,88.67
2017-12-05T12:10:06.489Z,88.63
2017-12-05T12:11:12.420Z,88.99
2017-12-05T12:12:17.235Z,89.21
2017-12-05T12:13:26.882Z,89.09
2017-12-05T12:14:30.574Z,88.98
2017-12-05T12:15:34.873Z,88.63
2017-12-05T12:16:38.871Z,88.78
2017-12-05T12:17:41.929Z,88.45
2017-12-05T12:18:45.421Z,88.42
2017-12-05T12:19:49.075Z,88.96
2017-12-05T12:20:56.205Z,89.02
2017-12-05T12:21:59.728Z,89.18
2017-12-05T12:23:07.513Z,89.39
2017-12-05T12:24:11.077Z,88.97
2017-12-05T12:25:16.112Z,88.80
2017-12-05T12:26:19.079Z,88.68
2017-12-05T12:27:22.860Z,88.91
2017-12-05T12:28:25.952Z,88.76
2017-12-05T12:29:29.842Z,88.68
2017-12-05T12:30:33.051Z,88.60
2017-12-05T12:31:38.166Z,88.72
2017-12-05T12:32:41.130Z,88.75
2017-12-05T12:33:44.131Z,88.87
2017-12-05T12:34:47.112Z,88.89
2017-12-05T12:35:50.494Z,88.64
2017-12-05T12:36:53.345Z,88.36
2017-12-05T12:37:56.298Z,88.83
2017-12-05T12:38:59.280Z,88.51
2017-12-05T12:40:02.384Z,88.51
2017-12-05T12:41:05.472Z,88.78
2017-12-05T12:42:08.850Z,88.81
2017-12-05T12:43:11.873Z,88.60
2017-12-05T12:44:15.787Z,88.40
2017-12-05T12:45:18.842Z,88.11
2017-12-05T12:46:22.991Z,88.84
2017-12-05T12:47:25.956Z,88.45
2017-12-05T12:48:30.915Z,88.46
2017-12-05T12:49:35.413Z,88.46
2017-12-05T12:50:39.010Z,88.57
2017-12-05T12:51:43.548Z,88.19
2017-12-05T12:52:46.803Z,89.52
2017-12-05T12:53:50.480Z,89.04
2017-12-05T12:55:01.687Z,88.32
2017-12-05T12:56:05.295Z,88.46
2017-12-05T12:57:08.313Z,88.56
2017-12-05T12:58:15.706Z,88.35
2017-12-05T12:59:19.505Z,88.52
2017-12-05T13:00:23.179Z,88.51
2017-12-05T13:01:28.244Z,88.38
2017-12-05T13:02:31.463Z,88.73
2017-12-05T13:03:34.873Z,88.93
2017-12-05T13:04:37.902Z,88.83
2017-12-05T13:05:42.556Z,89.03
2017-12-05T13:06:46.029Z,89.11
2017-12-05T13:07:49.138Z,88.99
2017-12-05T13:08:52.616Z,88.92
2017-12-05T13:09:55.690Z,88.58
2017-12-05T13:10:58.885Z,88.72
2017-12-05T13:12:02.152Z,88.41
2017-12-05T13:13:05.651Z,88.27
2017-12-05T13:14:08.993Z,88.38
2017-12-05T13:15:12.134Z,88.53
2017-12-05T13:16:15.166Z,88.32
2017-12-05T13:17:18.170Z,87.83
2017-12-05T13:18:21.672Z,88.15
2017-12-05T13:19:25.120Z,88.40
2017-12-05T13:20:28.160Z,88.54
2017-12-05T13:21:31.247Z,87.61
2017-12-05T13:22:34.294Z,88.10
2017-12-05T13:23:38.150Z,88.07
2017-12-05T13:24:41.145Z,87.86
2017-12-05T13:25:45.098Z,88.44
2017-12-05T13:26:48.273Z,88.30
2017-12-05T13:27:51.222Z,87.54
2017-12-05T13:28:55.467Z,88.06
2017-12-05T13:29:58.444Z,87.88
2017-12-05T13:31:01.477Z,87.82
2017-12-05T13:32:04.902Z,87.68
2017-12-05T13:33:07.914Z,87.88
2017-12-05T13:34:12.030Z,87.67
2017-12-05T13:35:15.051Z,86.96
2017-12-05T13:36:18.102Z,87.36
2017-12-05T13:37:23.420Z,87.32
2017-12-05T13:38:26.858Z,87.86
2017-12-05T13:39:29.820Z,87.53
2017-12-05T13:40:34.446Z,87.72
2017-12-05T13:41:37.662Z,87.85
2017-12-05T13:42:40.638Z,87.69
2017-12-05T13:43:43.572Z,87.85
2017-12-05T13:44:48.019Z,88.10
2017-12-05T13:45:52.266Z,87.83